createdAt,value
2023-04-10T00:03:52.002Z,8.03
2023-04-10T00:08:43.881Z,6.87
2023-04-10T00:13:35.865Z,7.43
2023-04-10T00:18:28.737Z,7.07
2023-04-10T00:23:20.435Z,7.47
2023-04-10T00:28:12.114Z,6.93
2023-04-10T00:33:04.118Z,7.50
2023-04-10T00:37:56.986Z,7.90
2023-04-10T00:42:49.038Z,7.23
2023-04-10T00:47:41.487Z,7.43
2023-04-10T00:52:33.511Z,7.53
2023-04-10T00:57:26.470Z,7.07
2023-04-10T01:02:19.289Z,7.63
2023-04-10T01:07:39.139Z,7.83
2023-04-10T01:13:05.969Z,8.03
2023-04-10T01:18:10.186Z,7.80
2023-04-10T01:23:24.456Z,7.60
2023-04-10T01:28:19.357Z,7.73
2023-04-10T01:33:14.029Z,7.50
2023-04-10T01:38:07.589Z,7.80
2023-04-10T01:43:01.612Z,7.53
2023-04-10T01:48:05.678Z,8.00
2023-04-10T01:52:58.695Z,7.90
2023-04-10T01:57:53.555Z,7.80
2023-04-10T02:02:46.654Z,7.57
2023-04-10T02:07:41.749Z,7.60
2023-04-10T02:12:42.118Z,8.07
2023-04-10T02:17:36.290Z,7.90
2023-04-10T02:22:29.063Z,7.33
2023-04-10T02:27:31.355Z,8.10
2023-04-10T02:32:24.365Z,7.10
2023-04-10T02:37:16.707Z,7.30
2023-04-10T02:42:08.566Z,8.10
2023-04-10T02:47:01.433Z,7.03
2023-04-10T02:51:55.575Z,7.57
2023-04-10T02:56:47.890Z,7.70
2023-04-10T03:01:39.847Z,7.40
2023-04-10T03:06:31.903Z,7.33
2023-04-10T03:11:23.913Z,7.23
2023-04-10T03:16:17.632Z,6.77
2023-04-10T03:21:09.991Z,6.73
2023-04-10T03:26:01.917Z,6.80
2023-04-10T03:30:56.583Z,6.90
2023-04-10T03:35:48.570Z,7.17
2023-04-10T03:40:40.334Z,7.17
2023-04-10T03:45:34.632Z,7.07
2023-04-10T03:50:27.441Z,7.33
2023-04-10T03:55:23.713Z,7.53
2023-04-10T04:00:17.519Z,7.03
2023-04-10T04:05:13.064Z,7.93
2023-04-10T04:10:12.370Z,6.90
2023-04-10T04:15:25.803Z,7.13
2023-04-10T04:20:44.690Z,7.07
2023-04-10T04:25:56.933Z,6.87
2023-04-10T04:31:07.372Z,7.17
2023-04-10T04:36:22.318Z,6.80
2023-04-10T04:41:43.445Z,7.20
2023-04-10T04:46:55.182Z,6.73
2023-04-10T04:52:16.494Z,7.53
2023-04-10T04:57:12.174Z,6.67
2023-04-10T05:02:30.837Z,6.73
2023-04-10T05:07:41.795Z,6.97
2023-04-10T05:12:53.891Z,6.93
2023-04-10T05:17:51.231Z,7.50
2023-04-10T05:23:06.483Z,7.17
2023-04-10T05:28:18.427Z,6.77
2023-04-10T05:33:41.915Z,7.23
2023-04-10T05:38:42.704Z,6.90
2023-04-10T05:44:03.868Z,7.47
2023-04-10T05:49:14.836Z,7.43
2023-04-10T05:54:32.448Z,7.03
2023-04-10T05:59:42.988Z,7.43
2023-04-10T06:04:52.581Z,8.00
2023-04-10T06:09:45.309Z,7.93
2023-04-10T06:14:37.002Z,7.67
2023-04-10T06:19:29.002Z,7.27
2023-04-10T06:24:23.949Z,7.40
2023-04-10T06:29:16.917Z,7.53
2023-04-10T06:34:08.708Z,7.30
2023-04-10T06:39:02.898Z,7.37
2023-04-10T06:58:30.042Z,7.43
2023-04-10T07:03:21.777Z,7.93
2023-04-10T07:08:13.512Z,7.82
2023-04-10T07:13:05.919Z,7.80
2023-04-10T07:17:57.926Z,7.87
2023-04-10T07:22:49.686Z,7.35
2023-04-10T07:27:41.460Z,8.00
2023-04-10T07:32:36.090Z,7.80
2023-04-10T07:37:28.071Z,7.40
2023-04-10T07:42:19.865Z,7.30
2023-04-10T07:47:11.613Z,6.90
2023-04-10T07:52:03.571Z,6.50
2023-04-10T07:56:55.391Z,6.57
2023-04-10T08:01:47.241Z,7.33
2023-04-10T08:06:39.005Z,6.72
2023-04-10T08:11:35.301Z,6.67
2023-04-10T08:16:30.509Z,5.63
2023-04-10T08:21:23.269Z,6.50
2023-04-10T13:25:49.802Z,2.03
2023-04-10T13:30:42.479Z,1.80
2023-04-10T13:35:34.450Z,2.00
2023-04-10T13:40:26.169Z,1.73
2023-04-10T13:45:17.986Z,2.03
2023-04-10T13:50:10.355Z,2.00
2023-04-10T13:55:02.051Z,1.77
2023-04-10T13:59:53.839Z,2.00
2023-04-10T14:04:46.266Z,1.90
2023-04-10T14:09:38.552Z,2.03
2023-04-10T14:14:30.720Z,1.90
2023-04-10T14:19:22.528Z,1.80
2023-04-10T14:24:14.285Z,2.10
2023-04-10T14:29:08.569Z,1.50
2023-04-10T14:34:00.520Z,1.80
2023-04-10T14:38:52.434Z,1.70
2023-04-10T14:43:44.830Z,1.80
2023-04-10T14:48:36.718Z,2.00
2023-04-10T14:53:28.505Z,1.60
2023-04-10T14:58:20.254Z,2.03
2023-04-10T15:03:12.153Z,2.10
2023-04-10T15:08:03.995Z,2.20
2023-04-10T15:12:55.842Z,1.97
2023-04-10T15:17:47.664Z,2.60
2023-04-10T15:22:40.460Z,1.90
2023-04-10T15:27:32.210Z,2.40
2023-04-10T15:32:24.002Z,2.87
2023-04-10T15:37:15.858Z,2.50
2023-04-10T15:42:08.469Z,2.77
2023-04-10T15:47:00.309Z,2.50
2023-04-10T15:51:52.047Z,2.90
2023-04-10T15:56:43.904Z,2.20
2023-04-10T16:01:35.769Z,2.40
2023-04-10T16:06:28.170Z,2.77
2023-04-10T16:11:22.245Z,2.57
2023-04-10T16:16:18.211Z,2.73
2023-04-10T16:21:10.044Z,3.30
2023-04-10T16:26:01.840Z,2.87
2023-04-10T16:30:53.614Z,2.77
2023-04-10T16:35:45.565Z,2.97
2023-04-10T16:40:38.811Z,2.80
2023-04-10T16:45:30.554Z,2.50
2023-04-10T16:50:22.448Z,2.60
2023-04-10T16:55:14.353Z,3.00
2023-04-10T17:00:06.802Z,2.93
2023-04-10T17:04:58.607Z,2.83
2023-04-10T17:09:50.773Z,2.93
2023-04-10T17:14:42.739Z,2.60
2023-04-10T17:19:34.512Z,2.23
2023-04-10T17:24:26.316Z,2.90
2023-04-10T17:29:18.173Z,2.70
2023-04-10T17:34:09.914Z,2.70
2023-04-10T17:39:01.678Z,2.27
2023-04-10T17:43:53.464Z,2.33
2023-04-10T17:48:46.017Z,3.00
2023-04-10T17:53:37.851Z,2.73
2023-04-10T17:58:29.832Z,2.90
2023-04-10T18:03:21.693Z,2.60
2023-04-10T18:08:14.521Z,2.73
2023-04-10T18:13:06.582Z,2.50
2023-04-10T18:17:58.378Z,2.07
2023-04-10T18:22:50.286Z,2.50
2023-04-10T18:28:04.315Z,2.40
2023-04-10T18:32:58.117Z,1.90
2023-04-10T18:37:49.894Z,1.80
2023-04-10T18:42:41.588Z,2.40
2023-04-10T18:47:34.179Z,1.40
2023-04-10T18:52:27.215Z,2.10
2023-04-10T18:57:18.880Z,1.90
2023-04-10T19:02:10.985Z,2.17
2023-04-10T19:07:03.782Z,1.60
2023-04-10T19:11:56.254Z,1.90
2023-04-10T19:16:47.997Z,1.70
2023-04-10T19:21:39.776Z,3.07
2023-04-10T19:26:31.698Z,2.30
2023-04-10T19:31:24.072Z,2.10
2023-04-10T19:36:18.081Z,2.60
2023-04-10T19:41:14.803Z,2.27
2023-04-10T19:46:06.830Z,2.30
2023-04-10T19:51:07.612Z,2.60
2023-04-10T19:55:59.332Z,2.20
2023-04-10T20:00:52.015Z,2.63
2023-04-10T20:05:43.952Z,2.37
2023-04-10T20:10:35.788Z,2.17
2023-04-10T20:15:27.508Z,3.03
2023-04-10T20:20:19.282Z,2.93
2023-04-10T20:25:11.199Z,3.30
2023-04-10T20:30:03.118Z,2.20
2023-04-10T20:34:54.882Z,2.40
2023-04-10T20:39:46.739Z,1.90
2023-04-10T20:44:38.937Z,2.10
2023-04-10T20:49:31.205Z,2.20
2023-04-10T20:54:23.961Z,2.20
2023-04-10T20:59:15.699Z,1.50
2023-04-10T21:04:07.554Z,1.63
2023-04-10T21:08:59.429Z,1.87
2023-04-10T21:13:51.478Z,1.83
2023-04-10T21:18:43.320Z,2.20
2023-04-10T21:23:35.080Z,2.67
2023-04-10T21:28:26.798Z,1.80
2023-04-10T21:33:18.493Z,1.80
2023-04-10T21:38:11.849Z,1.37
2023-04-10T21:43:04.210Z,1.60
2023-04-10T21:47:55.973Z,1.60
2023-04-10T21:52:48.078Z,1.60
2023-04-10T21:57:39.851Z,1.40
2023-04-10T22:02:31.688Z,1.47
2023-04-10T22:07:23.523Z,1.30
2023-04-10T22:12:15.332Z,1.30
2023-04-10T22:17:07.141Z,1.07
2023-04-10T22:21:59.011Z,1.27
2023-04-10T22:26:50.803Z,0.90
2023-04-10T22:31:44.014Z,1.10
2023-04-10T22:36:35.890Z,1.17
2023-04-10T22:41:28.463Z,1.00
2023-04-10T22:46:20.266Z,0.90
2023-04-10T22:51:12.585Z,1.67
2023-04-10T22:56:05.728Z,1.57
2023-04-10T23:00:57.426Z,1.30
2023-04-10T23:05:49.223Z,1.20
2023-04-10T23:10:41.030Z,1.10
2023-04-10T23:15:32.937Z,1.20
2023-04-10T23:20:25.367Z,0.97
2023-04-10T23:25:17.128Z,1.00
2023-04-10T23:30:09.038Z,1.07
2023-04-10T23:35:00.991Z,1.00
2023-04-10T23:39:52.813Z,0.67
2023-04-10T23:44:44.559Z,1.23
2023-04-10T23:49:36.302Z,0.90
2023-04-10T23:54:29.739Z,1.10
2023-04-10T23:59:21.506Z,1.20
